createdAt,value
2019-01-11T00:01:32.989Z,102082.14
2019-01-11T00:04:01.293Z,102074.03
2019-01-11T00:06:29.558Z,102069.21
2019-01-11T00:08:57.814Z,102066.06
2019-01-11T00:11:26.145Z,102068.67
2019-01-11T00:13:54.435Z,102068.91
2019-01-11T00:16:22.750Z,102074.33
2019-01-11T00:18:50.998Z,102075.97
2019-01-11T00:21:19.291Z,102073.87
2019-01-11T00:23:47.652Z,102076.84
2019-01-11T00:26:16.022Z,102079.90
2019-01-11T00:28:44.318Z,102083.69
2019-01-11T00:31:12.616Z,102075.88
2019-01-11T00:33:40.928Z,102062.48
2019-01-11T00:36:09.185Z,102070.13
2019-01-11T00:38:37.449Z,102075.72
2019-01-11T00:41:05.724Z,102065.80
2019-01-11T00:43:34.037Z,102061.84
2019-01-11T00:46:02.421Z,102067.21
2019-01-11T00:48:30.680Z,102064.83
2019-01-11T00:50:58.942Z,102057.53
2019-01-11T00:53:27.284Z,102063.80
2019-01-11T00:55:55.517Z,102065.47
2019-01-11T00:58:23.813Z,102068.22
2019-01-11T01:00:52.133Z,102066.00
2019-01-11T01:03:20.384Z,102058.47
2019-01-11T01:05:48.649Z,102055.92
2019-01-11T01:08:16.952Z,102059.67
2019-01-11T01:10:45.318Z,102061.22
2019-01-11T01:13:13.858Z,102057.56
2019-01-11T01:15:42.103Z,102043.52
2019-01-11T01:18:10.423Z,102053.24
2019-01-11T01:20:38.876Z,102049.22
2019-01-11T01:23:07.899Z,102051.33
2019-01-11T01:25:36.238Z,102047.08
2019-01-11T01:28:04.686Z,102047.14
2019-01-11T01:30:32.984Z,102042.34
2019-01-11T01:33:01.231Z,102039.34
2019-01-11T01:35:29.543Z,102042.82
2019-01-11T01:37:57.790Z,102037.16
2019-01-11T01:40:26.081Z,102040.20
2019-01-11T01:42:54.403Z,102034.61
2019-01-11T01:45:22.713Z,102040.81
2019-01-11T01:47:50.993Z,102039.97
2019-01-11T01:50:20.056Z,102030.89
2019-01-11T01:52:48.363Z,102028.51
2019-01-11T01:55:16.696Z,102026.94
2019-01-11T01:57:44.953Z,102026.94
2019-01-11T02:00:15.984Z,102021.81
2019-01-11T02:02:44.245Z,102018.36
2019-01-11T02:05:12.606Z,102013.36
2019-01-11T02:07:40.902Z,102010.74
2019-01-11T02:10:11.354Z,102008.06
2019-01-11T02:12:39.709Z,102016.67
2019-01-11T02:15:09.699Z,102015.92
2019-01-11T02:17:37.974Z,102011.43
2019-01-11T02:20:09.502Z,102009.59
2019-01-11T02:22:37.803Z,102009.05
2019-01-11T02:25:06.834Z,102006.37
2019-01-11T02:27:35.087Z,102012.39
2019-01-11T02:30:04.158Z,102014.23
2019-01-11T02:32:32.429Z,102009.17
2019-01-11T02:35:01.028Z,102009.91
2019-01-11T02:37:29.296Z,102009.98
2019-01-11T02:39:57.554Z,102018.08
2019-01-11T02:42:25.838Z,102016.50
2019-01-11T02:44:54.091Z,102019.25
2019-01-11T02:47:22.380Z,102012.96
2019-01-11T02:49:50.701Z,102007.36
2019-01-11T02:52:18.996Z,102007.36
2019-01-11T02:54:47.270Z,102005.52
2019-01-11T02:57:15.568Z,102007.95
2019-01-11T02:59:43.914Z,101997.53
2019-01-11T03:02:12.214Z,102005.84
2019-01-11T03:04:40.534Z,102000.77
2019-01-11T03:07:08.818Z,102002.41
2019-01-11T03:09:37.106Z,102001.64
2019-01-11T03:12:05.486Z,101997.61
2019-01-11T03:14:33.768Z,101995.53
2019-01-11T03:17:02.078Z,101996.63
2019-01-11T03:19:30.349Z,101996.69
2019-01-11T03:21:58.671Z,101996.69
2019-01-11T03:24:27.107Z,102004.80
2019-01-11T03:26:55.368Z,101995.11
2019-01-11T03:29:23.663Z,101996.27
2019-01-11T03:31:51.943Z,101989.80
2019-01-11T03:34:20.221Z,101989.80
2019-01-11T03:36:49.279Z,101990.15
2019-01-11T03:39:17.620Z,101997.16
2019-01-11T03:41:47.524Z,101991.84
2019-01-11T03:44:15.773Z,101990.53
2019-01-11T03:46:44.173Z,101987.34
2019-01-11T03:49:12.484Z,101985.22
2019-01-11T03:51:40.782Z,101989.30
2019-01-11T03:54:09.061Z,101986.91
2019-01-11T03:56:37.360Z,101977.81
2019-01-11T03:59:05.783Z,101976.00
2019-01-11T04:01:34.089Z,101971.73
2019-01-11T04:04:02.351Z,101978.49
2019-01-11T04:06:30.631Z,101974.77
2019-01-11T04:08:58.878Z,101976.96
2019-01-11T04:11:27.305Z,101966.02
2019-01-11T04:13:55.613Z,101964.70
2019-01-11T04:16:23.850Z,101953.50
2019-01-11T04:18:53.769Z,101949.53
2019-01-11T04:21:22.046Z,101947.70
2019-01-11T04:23:50.419Z,101948.80
2019-01-11T04:26:18.702Z,101941.63
2019-01-11T04:28:47.005Z,101940.29
2019-01-11T04:31:15.281Z,101938.75
2019-01-11T04:33:43.599Z,101938.75
2019-01-11T04:36:11.873Z,101941.19
2019-01-11T04:38:40.129Z,101941.30
2019-01-11T04:41:08.464Z,101937.83
2019-01-11T04:43:36.710Z,101931.95
2019-01-11T04:46:04.992Z,101937.12
2019-01-11T04:48:34.139Z,101932.01
2019-01-11T04:51:02.390Z,101933.40
2019-01-11T04:53:30.682Z,101924.34
2019-01-11T04:55:59.094Z,101936.23
2019-01-11T04:58:27.345Z,101929.86
2019-01-11T05:00:55.627Z,101930.46
2019-01-11T05:03:24.290Z,101935.08
2019-01-11T05:05:52.659Z,101935.08
2019-01-11T05:08:20.963Z,101935.63
2019-01-11T05:10:49.305Z,101939.20
2019-01-11T05:13:37.117Z,101939.55
2019-01-11T05:16:05.384Z,101939.55
2019-01-11T05:18:33.790Z,101939.34
2019-01-11T05:21:02.052Z,101935.91
2019-01-11T05:23:30.310Z,101931.54
2019-01-11T05:25:58.665Z,101934.31
2019-01-11T05:28:27.004Z,101938.64
2019-01-11T05:30:56.029Z,101928.70
2019-01-11T05:33:24.374Z,101929.53
2019-01-11T05:35:52.824Z,101929.53
2019-01-11T05:38:21.084Z,101927.44
2019-01-11T05:40:49.346Z,101927.44
2019-01-11T05:43:19.581Z,101929.37
2019-01-11T05:45:47.836Z,101926.43
2019-01-11T05:48:16.094Z,101926.72
2019-01-11T05:50:44.407Z,101925.42
2019-01-11T05:53:12.678Z,101921.95
2019-01-11T05:55:45.300Z,101925.52
2019-01-11T05:58:18.050Z,101925.52
2019-01-11T06:00:46.360Z,101925.34
2019-01-11T06:03:14.644Z,101925.34
2019-01-11T06:05:42.911Z,101920.86
2019-01-11T06:08:12.883Z,101914.47
2019-01-11T06:10:41.222Z,101914.47
2019-01-11T06:13:09.670Z,101912.66
2019-01-11T06:15:38.202Z,101912.66
2019-01-11T06:18:06.504Z,101922.70
2019-01-11T06:20:34.795Z,101922.70
2019-01-11T06:23:03.121Z,101914.84
2019-01-11T06:25:31.404Z,101925.17
2019-01-11T06:27:59.742Z,101920.23
2019-01-11T06:30:28.026Z,101920.23
2019-01-11T06:32:56.352Z,101920.83
2019-01-11T06:35:24.675Z,101915.23
2019-01-11T06:37:52.928Z,101915.23
2019-01-11T06:40:21.241Z,101915.05
2019-01-11T06:42:49.704Z,101910.00
2019-01-11T06:45:18.003Z,101914.39
2019-01-11T06:47:46.448Z,101921.41
2019-01-11T06:50:17.068Z,101911.73
2019-01-11T06:52:45.349Z,101906.91
2019-01-11T06:55:13.614Z,101908.58
2019-01-11T06:57:41.936Z,101908.64
2019-01-11T07:00:13.210Z,101901.88
2019-01-11T07:02:41.525Z,101909.67
2019-01-11T07:05:10.985Z,101909.67
2019-01-11T07:07:39.701Z,101905.34
2019-01-11T07:10:11.293Z,101905.34
2019-01-11T07:12:39.573Z,101917.00
2019-01-11T07:15:09.884Z,101905.41
2019-01-11T07:17:38.200Z,101909.77
2019-01-11T07:20:09.715Z,101903.33
2019-01-11T07:22:37.957Z,101905.98
2019-01-11T07:25:08.290Z,101915.73
2019-01-11T07:27:38.211Z,101917.36
2019-01-11T07:30:15.557Z,101917.36
2019-01-11T07:32:44.032Z,101914.42
2019-01-11T07:35:12.341Z,101900.73
2019-01-11T07:37:40.618Z,101904.33
2019-01-11T07:40:12.539Z,101904.33
2019-01-11T07:42:40.917Z,101902.75
2019-01-11T07:45:11.592Z,101904.97
2019-01-11T07:47:39.967Z,101907.72
2019-01-11T07:50:09.460Z,101908.33
2019-01-11T07:52:37.789Z,101908.64
2019-01-11T07:55:08.133Z,101915.98
2019-01-11T07:57:36.543Z,101916.55
2019-01-11T08:00:12.508Z,101911.45
2019-01-11T08:02:41.325Z,101901.71
2019-01-11T08:05:09.559Z,101911.19
2019-01-11T08:07:37.835Z,101900.70
2019-01-11T08:10:09.103Z,101909.93
2019-01-11T08:12:37.472Z,101907.75
2019-01-11T08:15:08.970Z,101904.00
2019-01-11T08:17:37.229Z,101907.27
2019-01-11T08:20:06.979Z,101899.20
2019-01-11T08:22:36.872Z,101896.23
2019-01-11T08:25:06.376Z,101902.44
2019-01-11T08:27:34.728Z,101900.58
2019-01-11T08:30:03.131Z,101900.09
2019-01-11T08:32:31.432Z,101896.05
2019-01-11T08:34:59.835Z,101900.11
2019-01-11T08:37:29.101Z,101902.57
2019-01-11T08:39:57.361Z,101900.14
2019-01-11T08:42:25.676Z,101901.77
2019-01-11T08:44:53.989Z,101894.78
2019-01-11T08:47:22.266Z,101897.75
2019-01-11T08:49:50.567Z,101893.70
2019-01-11T08:52:18.855Z,101895.34
2019-01-11T08:54:47.141Z,101894.30
2019-01-11T08:57:16.267Z,101894.05
2019-01-11T08:59:44.632Z,101897.53
2019-01-11T09:02:13.064Z,101888.67
2019-01-11T09:04:41.352Z,101890.84
2019-01-11T09:07:09.621Z,101890.35
2019-01-11T09:09:38.014Z,101894.91
2019-01-11T09:12:06.349Z,101887.67
2019-01-11T09:14:42.625Z,101887.67
2019-01-11T09:17:10.865Z,101888.20
2019-01-11T09:19:39.189Z,101884.73
2019-01-11T09:22:07.489Z,101889.05
2019-01-11T09:24:35.761Z,101889.33
2019-01-11T09:27:04.216Z,101889.11
2019-01-11T09:29:32.487Z,101895.59
2019-01-11T09:32:00.910Z,101894.50
2019-01-11T09:34:29.308Z,101885.35
2019-01-11T09:36:57.665Z,101898.88
2019-01-11T09:39:25.980Z,101899.70
2019-01-11T09:41:54.269Z,101898.10
2019-01-11T09:44:22.540Z,101904.06
2019-01-11T09:46:50.865Z,101901.11
2019-01-11T09:49:19.211Z,101897.87
2019-01-11T09:51:47.493Z,101897.38
2019-01-11T09:54:15.783Z,101893.88
2019-01-11T09:56:44.112Z,101897.41
2019-01-11T09:59:12.559Z,101895.81
2019-01-11T10:01:40.930Z,101897.69
2019-01-11T10:04:10.877Z,101896.34
2019-01-11T10:06:40.922Z,101893.66
2019-01-11T10:09:09.188Z,101890.70
2019-01-11T10:11:37.538Z,101893.41
2019-01-11T10:14:05.853Z,101895.59
2019-01-11T10:16:34.192Z,101894.54
2019-01-11T10:19:02.888Z,101891.57
2019-01-11T10:21:31.242Z,101891.30
2019-01-11T10:23:59.666Z,101888.86
2019-01-11T10:26:28.128Z,101891.02
2019-01-11T10:28:56.431Z,101896.98
2019-01-11T10:31:24.699Z,101893.22
2019-01-11T10:33:52.996Z,101894.87
2019-01-11T10:36:22.162Z,101893.25
2019-01-11T10:38:50.574Z,101895.95
2019-01-11T10:41:18.918Z,101892.44
2019-01-11T10:43:47.312Z,101891.95
2019-01-11T10:46:20.195Z,101891.67
2019-01-11T10:48:48.557Z,101893.03
2019-01-11T10:51:19.089Z,101893.06
2019-01-11T10:53:46.833Z,101889.53
2019-01-11T10:56:15.091Z,101891.42
2019-01-11T10:58:43.432Z,101894.12
2019-01-11T11:01:11.679Z,101886.28
2019-01-11T11:03:40.033Z,101879.55
2019-01-11T11:06:08.306Z,101883.34
2019-01-11T11:08:36.590Z,101880.38
2019-01-11T11:11:04.861Z,101881.76
2019-01-11T11:13:33.140Z,101881.21
2019-01-11T11:16:01.531Z,101878.51
2019-01-11T11:18:29.859Z,101865.28
2019-01-11T11:20:58.109Z,101868.81
2019-01-11T11:23:27.018Z,101873.66
2019-01-11T11:25:55.316Z,101862.34
2019-01-11T11:28:23.626Z,101858.53
2019-01-11T11:30:52.046Z,101868.80
2019-01-11T11:33:20.312Z,101862.58
2019-01-11T11:35:48.573Z,101863.13
2019-01-11T11:38:16.879Z,101856.64
2019-01-11T11:40:45.178Z,101867.45
2019-01-11T11:43:13.452Z,101856.89
2019-01-11T11:45:41.715Z,101851.49
2019-01-11T11:48:10.010Z,101862.84
2019-01-11T11:50:38.259Z,101858.02
2019-01-11T11:53:06.552Z,101852.38
2019-01-11T11:55:34.835Z,101849.91
2019-01-11T11:58:03.130Z,101844.78
2019-01-11T12:00:31.469Z,101840.80
2019-01-11T12:02:59.778Z,101835.40
2019-01-11T12:05:28.225Z,101833.78
2019-01-11T12:07:56.458Z,101837.05
2019-01-11T12:10:24.715Z,101836.23
2019-01-11T12:12:52.992Z,101837.30
2019-01-11T12:15:21.249Z,101835.16
2019-01-11T12:17:49.578Z,101837.59
2019-01-11T12:20:24.299Z,101829.78
2019-01-11T12:22:52.613Z,101833.28
2019-01-11T12:25:21.468Z,101832.48
2019-01-11T12:27:49.810Z,101826.80
2019-01-11T12:30:18.306Z,101824.09
2019-01-11T12:32:46.569Z,101824.36
2019-01-11T12:35:14.853Z,101817.89
2019-01-11T12:37:43.128Z,101816.25
2019-01-11T12:40:13.871Z,101823.00
2019-01-11T12:42:42.155Z,101818.66
2019-01-11T12:45:13.130Z,101813.02
2019-01-11T12:47:41.387Z,101810.57
2019-01-11T12:50:12.934Z,101812.49
2019-01-11T12:52:42.206Z,101816.27
2019-01-11T12:55:10.530Z,101803.84
2019-01-11T12:57:38.804Z,101799.24
2019-01-11T13:00:10.621Z,101803.58
2019-01-11T13:02:39.065Z,101796.28
2019-01-11T13:05:09.665Z,101807.09
2019-01-11T13:07:37.937Z,101795.22
2019-01-11T13:10:09.312Z,101793.61
2019-01-11T13:12:37.537Z,101804.69
2019-01-11T13:15:09.205Z,101793.33
2019-01-11T13:17:37.706Z,101787.92
2019-01-11T13:20:09.294Z,101785.77
2019-01-11T13:22:37.588Z,101783.63
2019-01-11T13:25:07.112Z,101782.53
2019-01-11T13:27:35.370Z,101787.41
2019-01-11T13:30:06.050Z,101782.27
2019-01-11T13:32:34.329Z,101782.27
2019-01-11T13:35:02.590Z,101786.61
2019-01-11T13:37:30.891Z,101784.46
2019-01-11T13:39:59.488Z,101786.88
2019-01-11T13:42:27.730Z,101785.25
2019-01-11T13:44:56.109Z,101792.83
2019-01-11T13:47:24.387Z,101786.08
2019-01-11T13:49:52.714Z,101779.58
2019-01-11T13:52:24.012Z,101788.21
2019-01-11T13:54:52.331Z,101783.33
2019-01-11T13:57:20.710Z,101787.94
2019-01-11T13:59:48.956Z,101789.55
2019-01-11T14:02:17.235Z,101783.88
2019-01-11T14:04:45.509Z,101787.64
2019-01-11T14:07:13.808Z,101783.31
2019-01-11T14:09:42.089Z,101786.84
2019-01-11T14:12:10.397Z,101788.45
2019-01-11T14:14:38.772Z,101783.05
2019-01-11T14:17:07.439Z,101791.98
2019-01-11T14:19:35.682Z,101786.58
2019-01-11T14:22:04.290Z,101781.72
2019-01-11T14:24:32.662Z,101782.53
2019-01-11T14:27:01.064Z,101795.77
2019-01-11T14:29:29.355Z,101787.95
2019-01-11T14:31:57.657Z,101791.72
2019-01-11T14:34:26.070Z,101792.25
2019-01-11T14:36:55.493Z,101793.05
2019-01-11T14:39:23.915Z,101802.23
2019-01-11T14:41:52.264Z,101800.62
2019-01-11T14:44:20.744Z,101793.33
2019-01-11T14:46:49.205Z,101800.09
2019-01-11T14:49:17.457Z,101799.27
2019-01-11T14:51:45.822Z,101793.33
2019-01-11T14:54:14.096Z,101795.75
2019-01-11T14:56:42.354Z,101791.98
2019-01-11T14:59:10.697Z,101794.13
2019-01-11T15:01:39.697Z,101794.67
2019-01-11T15:04:08.063Z,101791.97
2019-01-11T15:06:36.339Z,101796.83
2019-01-11T15:09:06.859Z,101800.60
2019-01-11T15:11:35.307Z,101805.76
2019-01-11T15:14:04.306Z,101806.83
2019-01-11T15:16:32.937Z,101805.20
2019-01-11T15:19:03.627Z,101803.86
2019-01-11T15:21:31.865Z,101797.36
2019-01-11T15:24:00.194Z,101804.91
2019-01-11T15:26:28.460Z,101802.48
2019-01-11T15:28:56.752Z,101796.81
2019-01-11T15:31:25.080Z,101801.69
2019-01-11T15:33:53.355Z,101802.76
2019-01-11T15:36:23.126Z,101805.72
2019-01-11T15:38:51.493Z,101806.27
2019-01-11T15:41:19.776Z,101806.77
2019-01-11T15:43:48.156Z,101810.56
2019-01-11T15:46:16.443Z,101810.81
2019-01-11T15:48:46.991Z,101806.77
2019-01-11T15:51:17.311Z,101805.63
2019-01-11T15:53:45.600Z,101795.36
2019-01-11T15:56:13.871Z,101805.85
2019-01-11T15:58:42.319Z,101807.49
2019-01-11T16:01:10.595Z,101799.66
2019-01-11T16:03:38.890Z,101799.09
2019-01-11T16:06:27.920Z,101805.85
2019-01-11T16:09:14.475Z,101798.58
2019-01-11T16:12:04.013Z,101800.44
2019-01-11T16:14:44.265Z,101799.91
2019-01-11T16:17:16.108Z,101807.98
2019-01-11T16:19:45.131Z,101801.52
2019-01-11T16:22:13.395Z,101798.82
2019-01-11T16:24:41.679Z,101795.30
2019-01-11T16:27:10.106Z,101802.31
2019-01-11T16:29:38.430Z,101801.27
2019-01-11T16:32:06.699Z,101803.16
2019-01-11T16:34:35.012Z,101797.75
2019-01-11T16:37:03.342Z,101797.19
2019-01-11T16:39:31.682Z,101806.91
2019-01-11T16:41:59.914Z,101806.09
2019-01-11T16:44:28.192Z,101808.77
2019-01-11T16:46:56.642Z,101808.22
2019-01-11T16:49:24.925Z,101808.75
2019-01-11T16:51:53.205Z,101807.13
2019-01-11T16:54:21.516Z,101814.66
2019-01-11T16:56:51.196Z,101813.59
2019-01-11T16:59:20.053Z,101805.77
2019-01-11T17:01:48.431Z,101804.15
2019-01-11T17:04:16.832Z,101804.97
2019-01-11T17:06:45.107Z,101806.59
2019-01-11T17:09:13.509Z,101816.32
2019-01-11T17:11:41.818Z,101813.91
2019-01-11T17:14:10.434Z,101814.19
2019-01-11T17:16:38.868Z,101810.39
2019-01-11T17:19:07.175Z,101806.63
2019-01-11T17:21:35.481Z,101820.69
2019-01-11T17:24:03.740Z,101816.11
2019-01-11T17:26:31.998Z,101816.65
2019-01-11T17:29:00.324Z,101822.05
2019-01-11T17:31:28.610Z,101815.03
2019-01-11T17:33:56.920Z,101813.38
2019-01-11T17:36:25.310Z,101812.00
2019-01-11T17:38:53.646Z,101810.38
2019-01-11T17:41:21.919Z,101812.78
2019-01-11T17:43:50.224Z,101811.14
2019-01-11T17:46:18.471Z,101806.58
2019-01-11T17:48:46.820Z,101805.20
2019-01-11T17:51:15.110Z,101810.30
2019-01-11T17:53:43.415Z,101814.35
2019-01-11T17:56:11.715Z,101815.42
2019-01-11T17:58:39.991Z,101816.22
2019-01-11T18:01:08.271Z,101824.31
2019-01-11T18:03:36.575Z,101822.95
2019-01-11T18:06:05.973Z,101827.79
2019-01-11T18:08:34.408Z,101831.30
2019-01-11T18:11:02.823Z,101831.09
2019-01-11T18:13:31.098Z,101834.05
2019-01-11T18:15:59.372Z,101839.16
2019-01-11T18:18:27.651Z,101845.91
2019-01-11T18:20:55.943Z,101843.46
2019-01-11T18:23:24.201Z,101839.16
2019-01-11T18:25:52.814Z,101841.31
2019-01-11T18:28:21.055Z,101842.96
2019-01-11T18:30:49.363Z,101845.69
2019-01-11T18:33:17.680Z,101846.75
2019-01-11T18:35:45.945Z,101840.02
2019-01-11T18:38:14.211Z,101844.09
2019-01-11T18:40:44.894Z,101845.94
2019-01-11T18:43:13.346Z,101844.88
2019-01-11T18:45:41.623Z,101848.39
2019-01-11T18:48:09.887Z,101842.17
2019-01-11T18:50:38.745Z,101843.26
2019-01-11T18:53:13.480Z,101846.75
2019-01-11T18:55:37.602Z,101850.53
2019-01-11T18:58:05.946Z,101846.50
2019-01-11T19:00:34.310Z,101855.95
2019-01-11T19:03:02.601Z,101847.30
2019-01-11T19:05:30.889Z,101856.75
2019-01-11T19:07:59.215Z,101847.02
2019-01-11T19:10:27.514Z,101848.92
2019-01-11T19:12:55.794Z,101858.91
2019-01-11T19:15:26.639Z,101856.73
2019-01-11T19:17:54.923Z,101846.75
2019-01-11T19:20:27.800Z,101859.76
2019-01-11T19:22:56.068Z,101858.95
2019-01-11T19:25:24.365Z,101855.70
2019-01-11T19:27:52.669Z,101856.25
2019-01-11T19:30:25.786Z,101861.09
2019-01-11T19:32:54.033Z,101858.41
2019-01-11T19:35:22.308Z,101864.34
2019-01-11T19:37:50.637Z,101864.59
2019-01-11T19:40:18.944Z,101870.81
2019-01-11T19:42:47.571Z,101864.33
2019-01-11T19:45:17.028Z,101867.54
2019-01-11T19:47:45.343Z,101855.66
2019-01-11T19:50:15.751Z,101864.59
2019-01-11T19:52:46.972Z,101863.79
2019-01-11T19:55:15.553Z,101868.63
2019-01-11T19:57:43.783Z,101864.84
2019-01-11T20:00:20.843Z,101874.55
2019-01-11T20:02:50.674Z,101877.78
2019-01-11T20:05:19.392Z,101874.80
2019-01-11T20:07:47.910Z,101875.58
2019-01-11T20:10:22.998Z,101875.59
2019-01-11T20:12:51.460Z,101872.08
2019-01-11T20:15:19.980Z,101878.56
2019-01-11T20:17:48.258Z,101878.05
2019-01-11T20:20:16.620Z,101875.58
2019-01-11T20:22:45.004Z,101879.12
2019-01-11T20:25:18.860Z,101876.14
2019-01-11T20:27:47.109Z,101880.16
2019-01-11T20:30:17.994Z,101879.64
2019-01-11T20:32:46.299Z,101885.03
2019-01-11T20:35:14.710Z,101875.58
2019-01-11T20:37:43.049Z,101881.47
2019-01-11T20:40:13.717Z,101880.16
2019-01-11T20:42:42.013Z,101883.33
2019-01-11T20:45:14.942Z,101884.13
2019-01-11T20:47:43.736Z,101886.58
2019-01-11T20:50:16.526Z,101889.79
2019-01-11T20:52:44.859Z,101884.36
2019-01-11T20:55:13.142Z,101884.92
2019-01-11T20:57:41.473Z,101894.91
2019-01-11T21:00:18.822Z,101895.45
2019-01-11T21:02:47.218Z,101891.41
2019-01-11T21:05:15.746Z,101898.71
2019-01-11T21:07:44.031Z,101904.89
2019-01-11T21:10:13.144Z,101898.16
2019-01-11T21:12:41.413Z,101891.14
2019-01-11T21:15:12.677Z,101893.33
2019-01-11T21:17:40.962Z,101894.41
2019-01-11T21:20:12.194Z,101895.77
2019-01-11T21:22:42.114Z,101894.41
2019-01-11T21:25:12.435Z,101896.55
2019-01-11T21:27:40.711Z,101887.64
2019-01-11T21:30:14.712Z,101893.30
2019-01-11T21:32:43.005Z,101893.85
2019-01-11T21:35:11.252Z,101898.45
2019-01-11T21:37:39.578Z,101900.31
2019-01-11T21:40:11.230Z,101894.67
2019-01-11T21:42:39.500Z,101896.81
2019-01-11T21:45:09.429Z,101895.45
2019-01-11T21:47:37.739Z,101900.58
2019-01-11T21:50:09.281Z,101903.00
2019-01-11T21:52:37.550Z,101900.55
2019-01-11T21:55:06.914Z,101893.81
2019-01-11T21:57:35.291Z,101892.47
2019-01-11T22:00:05.602Z,101895.42
2019-01-11T22:02:33.902Z,101897.82
2019-01-11T22:05:02.209Z,101890.80
2019-01-11T22:07:30.550Z,101888.15
2019-01-11T22:09:58.776Z,101889.75
2019-01-11T22:12:27.198Z,101900.28
2019-01-11T22:14:55.467Z,101896.45
2019-01-11T22:17:23.713Z,101888.64
2019-01-11T22:19:52.097Z,101896.45
2019-01-11T22:22:20.349Z,101892.13
2019-01-11T22:24:48.607Z,101884.82
2019-01-11T22:27:16.916Z,101881.59
2019-01-11T22:29:45.206Z,101885.39
2019-01-11T22:32:13.546Z,101876.77
2019-01-11T22:34:41.791Z,101878.89
2019-01-11T22:37:10.040Z,101887.52
2019-01-11T22:39:38.343Z,101885.89
2019-01-11T22:42:06.715Z,101883.47
2019-01-11T22:44:34.987Z,101881.30
2019-01-11T22:47:03.242Z,101876.16
2019-01-11T22:49:31.569Z,101880.98
2019-01-11T22:51:59.827Z,101877.46
2019-01-11T22:54:28.089Z,101882.34
2019-01-11T22:56:56.776Z,101882.09
2019-01-11T22:59:25.134Z,101882.39
2019-01-11T23:01:56.672Z,101877.50
2019-01-11T23:04:24.931Z,101882.05
2019-01-11T23:07:02.710Z,101878.26
2019-01-11T23:09:33.833Z,101880.98
2019-01-11T23:12:20.711Z,101875.89
2019-01-11T23:14:48.998Z,101879.91
2019-01-11T23:17:20.533Z,101876.13
2019-01-11T23:19:48.973Z,101873.44
2019-01-11T23:22:17.240Z,101871.80
2019-01-11T23:24:45.569Z,101866.98
2019-01-11T23:27:13.956Z,101870.77
2019-01-11T23:29:42.268Z,101866.39
2019-01-11T23:32:10.665Z,101867.45
2019-01-11T23:34:38.983Z,101865.30
2019-01-11T23:37:07.429Z,101863.41
2019-01-11T23:39:35.697Z,101861.24
2019-01-11T23:42:04.042Z,101865.83
2019-01-11T23:44:32.364Z,101859.84
2019-01-11T23:47:00.791Z,101864.17
2019-01-11T23:49:29.101Z,101859.88
2019-01-11T23:51:57.382Z,101862.30
2019-01-11T23:54:25.724Z,101861.52
2019-01-11T23:56:54.371Z,101859.07
2019-01-11T23:59:22.648Z,101866.89
